Time;durP1;ratioP1;P1;durP2;ratioP2;P2;SDS_P1;SDS_P2;PMS_P1;PMS_P2;Temp;Humidity;BMP_temperature;BMP_pressure;BME280_temperature;BME280_humidity;BME280_pressure;Samples;Min_cycle;Max_cycle;Signal;HPM_P1;HPM_P2
2023/01/21 00:01:20;;;;;;;80.07;47.03;;;-0.60;99.90;;;;;;5095335;28;20085;-68
2023/01/21 00:03:46;;;;;;;90.88;48.22;;;-0.60;99.90;;;;;;5104840;28;20540;-68
2023/01/21 00:06:13;;;;;;;91.30;49.38;;;-0.60;99.90;;;;;;5105201;28;20412;-68
2023/01/21 00:08:40;;;;;;;99.78;50.88;;;-0.60;99.90;;;;;;5097905;28;20095;-68
2023/01/21 00:11:10;;;;;;;97.40;53.67;;;-0.60;99.90;;;;;;5104053;28;20479;-68
2023/01/21 00:13:36;;;;;;;101.13;53.78;;;-0.60;99.90;;;;;;5105899;28;20093;-68
2023/01/21 00:16:03;;;;;;;99.65;51.78;;;-0.60;99.90;;;;;;5102219;28;20443;-68
2023/01/21 00:18:29;;;;;;;98.45;52.92;;;-0.60;99.90;;;;;;5093250;28;20093;-67
2023/01/21 00:20:55;;;;;;;99.40;52.63;;;-0.60;99.90;;;;;;5084926;28;20043;-68
2023/01/21 00:23:21;;;;;;;97.63;53.13;;;-0.60;99.90;;;;;;5105619;28;20044;-68
2023/01/21 00:25:46;;;;;;;100.78;55.10;;;-0.50;99.90;;;;;;5098274;28;20542;-68
2023/01/21 00:28:12;;;;;;;17.60;10.18;;;-0.50;99.90;;;;;;5104015;28;20386;-68
2023/01/21 00:30:38;;;;;;;112.25;56.60;;;-0.60;99.90;;;;;;5101426;28;20698;-68
2023/01/21 00:33:04;;;;;;;105.57;54.00;;;-0.50;99.90;;;;;;5096764;28;20044;-68
2023/01/21 00:35:29;;;;;;;102.63;53.92;;;-0.50;99.90;;;;;;5106044;28;20035;-68
2023/01/21 00:37:55;;;;;;;108.05;56.88;;;-0.50;99.90;;;;;;5105322;28;20074;-68
2023/01/21 00:40:21;;;;;;;107.13;57.78;;;-0.50;99.90;;;;;;5101295;28;20907;-68
2023/01/21 00:42:47;;;;;;;121.88;56.25;;;-0.50;99.90;;;;;;5094757;28;20040;-68
2023/01/21 00:45:13;;;;;;;99.40;54.33;;;-0.60;99.90;;;;;;5093817;28;20506;-68
2023/01/21 00:47:39;;;;;;;113.00;56.88;;;-0.60;99.90;;;;;;5104455;28;20047;-68
2023/01/21 00:50:05;;;;;;;114.88;58.92;;;-0.50;99.90;;;;;;5106662;28;20135;-68
2023/01/21 00:52:31;;;;;;;113.55;59.78;;;-0.50;99.90;;;;;;5093675;28;20537;-68
2023/01/21 00:54:56;;;;;;;106.95;58.72;;;-0.60;99.90;;;;;;5109099;28;20035;-68
2023/01/21 00:57:22;;;;;;;105.68;57.80;;;-0.60;99.90;;;;;;5108709;28;20571;-68
2023/01/21 00:59:50;;;;;;;112.03;59.10;;;-0.60;99.90;;;;;;5103414;28;20414;-68
2023/01/21 01:02:16;;;;;;;122.05;63.05;;;-0.50;99.90;;;;;;5106827;28;20136;-68
2023/01/21 01:04:41;;;;;;;124.93;62.08;;;-0.60;99.90;;;;;;5107806;28;20067;-68
2023/01/21 01:07:07;;;;;;;99.28;53.97;;;-0.60;99.90;;;;;;5102979;28;20414;-68
2023/01/21 01:09:33;;;;;;;101.15;54.67;;;-0.60;99.90;;;;;;5108769;28;20785;-68
2023/01/21 01:11:58;;;;;;;125.63;57.85;;;-0.50;99.90;;;;;;5109131;28;20051;-68
2023/01/21 01:14:24;;;;;;;107.60;56.42;;;-0.50;99.90;;;;;;5107390;28;20118;-68
2023/01/21 01:16:50;;;;;;;102.05;55.22;;;-0.40;99.90;;;;;;5096912;28;20067;-68
2023/01/21 01:19:16;;;;;;;100.47;52.95;;;-0.40;99.90;;;;;;5107189;28;20040;-68
2023/01/21 01:21:42;;;;;;;106.18;56.05;;;-0.40;99.90;;;;;;5105378;28;20078;-68
2023/01/21 01:24:07;;;;;;;22.15;9.57;;;-0.30;99.90;;;;;;5093476;28;20144;-68
2023/01/21 01:26:36;;;;;;;114.22;54.72;;;-0.40;99.90;;;;;;5106083;28;20043;-68
2023/01/21 01:29:04;;;;;;;111.95;53.83;;;-0.40;99.90;;;;;;5102285;28;20031;-68
2023/01/21 01:31:29;;;;;;;105.45;54.13;;;-0.40;99.90;;;;;;5093294;28;20047;-68
2023/01/21 01:33:56;;;;;;;114.18;56.67;;;-0.40;99.90;;;;;;5102191;28;20515;-68
2023/01/21 01:36:24;;;;;;;110.32;57.17;;;-0.40;99.90;;;;;;5106298;28;20089;-68
2023/01/21 01:38:52;;;;;;;107.00;55.75;;;-0.40;99.90;;;;;;5106112;28;20088;-68
2023/01/21 01:41:23;;;;;;;107.90;54.10;;;-0.40;99.90;;;;;;5097607;28;20051;-68
2023/01/21 01:43:58;;;;;;;114.00;56.78;;;-0.40;99.90;;;;;;5090781;28;20055;-68
2023/01/21 01:46:27;;;;;;;106.85;55.95;;;-0.30;99.90;;;;;;5098244;28;20058;-68
2023/01/21 01:49:02;;;;;;;112.97;56.35;;;-0.40;99.90;;;;;;5107930;28;20100;-68
2023/01/21 01:51:59;;;;;;;114.32;56.10;;;-0.40;99.90;;;;;;5088063;28;20048;-68
2023/01/21 01:54:36;;;;;;;113.35;57.47;;;-0.40;99.90;;;;;;5092264;28;20120;-68
2023/01/21 01:57:05;;;;;;;134.27;60.80;;;-0.40;99.90;;;;;;5093926;28;20589;-68
2023/01/21 01:59:31;;;;;;;;;;;-0.40;99.90;;;;;;5104622;28;20078;-68
2023/01/21 02:02:06;;;;;;;129.70;61.03;;;-0.40;99.90;;;;;;5100225;28;19924;-68
2023/01/21 02:04:40;;;;;;;129.98;61.55;;;-0.40;99.90;;;;;;5107806;28;20027;-68
2023/01/21 02:07:06;;;;;;;133.90;63.88;;;-0.40;99.90;;;;;;5098549;28;20468;-69
2023/01/21 02:09:32;;;;;;;137.70;65.68;;;-0.40;99.90;;;;;;5091503;28;20035;-68
2023/01/21 02:12:00;;;;;;;131.88;64.13;;;-0.50;99.90;;;;;;5095959;28;20785;-68
2023/01/21 02:14:27;;;;;;;129.63;59.05;;;-0.50;99.90;;;;;;5104536;28;20035;-68
2023/01/21 02:17:06;;;;;;;159.07;61.05;;;-0.40;99.90;;;;;;5107564;28;20186;-68
2023/01/21 02:19:41;;;;;;;162.20;64.70;;;-0.40;99.90;;;;;;5103942;28;20047;-68
2023/01/21 02:22:25;;;;;;;136.75;61.03;;;-0.50;99.90;;;;;;5107497;28;20199;-68
2023/01/21 02:25:20;;;;;;;150.43;62.42;;;-0.50;99.90;;;;;;5105939;28;20096;-68
2023/01/21 02:27:55;;;;;;;140.25;59.72;;;-0.50;99.90;;;;;;5104215;28;20043;-68
2023/01/21 02:30:34;;;;;;;143.15;62.15;;;-0.50;99.90;;;;;;5105333;28;20075;-68
2023/01/21 02:33:12;;;;;;;153.13;64.20;;;-0.40;99.90;;;;;;5086930;28;20040;-68
2023/01/21 02:35:59;;;;;;;152.90;62.13;;;-0.50;99.90;;;;;;5088796;28;20044;-68
2023/01/21 02:38:33;;;;;;;121.93;57.05;;;-0.40;99.90;;;;;;5105553;28;20039;-68
2023/01/21 02:41:08;;;;;;;132.40;58.08;;;-0.50;99.90;;;;;;5095984;28;20496;-68
2023/01/21 02:43:46;;;;;;;120.40;57.53;;;-0.50;99.90;;;;;;5106913;28;20108;-68
2023/01/21 02:46:35;;;;;;;125.35;57.08;;;-0.50;99.90;;;;;;5095486;28;20450;-68
2023/01/21 02:49:08;;;;;;;125.32;58.53;;;-0.50;99.90;;;;;;5074900;28;20413;-68
2023/01/21 02:51:34;;;;;;;113.97;55.72;;;-0.60;99.90;;;;;;5093522;28;20039;-68
2023/01/21 02:54:15;;;;;;;125.72;58.58;;;-0.60;99.90;;;;;;5106648;28;20344;-68
2023/01/21 02:56:43;;;;;;;114.78;54.42;;;-0.50;99.90;;;;;;5105968;28;20084;-68
2023/01/21 02:59:09;;;;;;;112.22;52.90;;;-0.50;99.90;;;;;;5088566;28;20047;-68
2023/01/21 03:01:47;;;;;;;125.10;54.88;;;-0.50;99.90;;;;;;5094030;28;20052;-68
2023/01/21 03:04:18;;;;;;;122.75;52.67;;;-0.50;99.90;;;;;;5092708;28;20044;-68
2023/01/21 03:07:25;;;;;;;115.57;54.13;;;-0.50;99.90;;;;;;5096423;28;20575;-68
2023/01/21 03:09:55;;;;;;;129.85;58.55;;;-0.50;99.90;;;;;;5106585;28;20497;-68
2023/01/21 03:12:53;;;;;;;124.22;58.75;;;-0.40;99.90;;;;;;5097588;28;20051;-68
2023/01/21 03:18:28;;;;;;;110.95;55.03;;;-0.40;99.90;;;;;;5103174;28;20159;-68
2023/01/21 03:21:18;;;;;;;107.53;54.30;;;-0.40;99.90;;;;;;5102493;28;20070;-68
2023/01/21 03:23:50;;;;;;;95.38;51.63;;;-0.40;99.90;;;;;;5102188;28;20032;-68
2023/01/21 03:26:24;;;;;;;110.25;52.20;;;-0.40;99.90;;;;;;5103837;28;20035;-68
2023/01/21 03:28:54;;;;;;;98.25;50.58;;;-0.30;99.90;;;;;;5093836;28;20113;-68
2023/01/21 03:31:24;;;;;;;101.60;50.50;;;-0.30;99.90;;;;;;5099093;28;20063;-68
2023/01/21 03:33:54;;;;;;;90.57;48.05;;;-0.30;99.90;;;;;;5095567;28;20616;-68
2023/01/21 03:36:36;;;;;;;84.53;46.67;;;-0.30;99.90;;;;;;5091627;28;20050;-68
2023/01/21 03:39:09;;;;;;;86.82;47.75;;;-0.20;99.90;;;;;;5098706;28;20055;-68
2023/01/21 03:41:38;;;;;;;84.93;46.83;;;-0.20;99.90;;;;;;5089256;28;20036;-68
2023/01/21 03:44:04;;;;;;;81.82;45.60;;;-0.20;99.90;;;;;;5102828;28;20523;-68
2023/01/21 03:47:16;;;;;;;80.15;44.85;;;-0.20;99.90;;;;;;5104872;28;20043;-68
2023/01/21 03:50:07;;;;;;;74.47;44.20;;;-0.20;99.90;;;;;;5082264;28;20130;-68
2023/01/21 03:52:34;;;;;;;76.50;42.95;;;-0.20;99.90;;;;;;5100088;28;20123;-68
2023/01/21 03:55:00;;;;;;;78.43;41.65;;;-0.20;99.90;;;;;;5089473;28;20133;-68
2023/01/21 03:57:25;;;;;;;74.13;41.78;;;-0.10;99.90;;;;;;5088280;28;20074;-68
2023/01/21 03:59:52;;;;;;;77.72;44.03;;;-0.10;99.90;;;;;;5094903;28;20043;-68
2023/01/21 04:02:19;;;;;;;71.10;42.53;;;-0.10;99.90;;;;;;5083861;28;20050;-68
2023/01/21 04:04:46;;;;;;;74.75;43.97;;;-0.10;99.90;;;;;;5103144;28;20035;-68
2023/01/21 04:07:13;;;;;;;75.28;42.90;;;-0.10;99.90;;;;;;5097785;28;20066;-68
2023/01/21 04:09:38;;;;;;;76.97;41.50;;;-0.10;99.90;;;;;;5091100;28;20066;-68
2023/01/21 04:12:04;;;;;;;73.15;42.33;;;-0.10;99.90;;;;;;5091431;28;20334;-68
2023/01/21 04:14:30;;;;;;;72.20;40.78;;;-0.20;99.90;;;;;;5093232;28;20041;-68
2023/01/21 04:16:55;;;;;;;71.65;40.55;;;-0.10;99.90;;;;;;5086326;28;20032;-68
2023/01/21 04:19:21;;;;;;;69.88;40.28;;;-0.20;99.90;;;;;;5098801;28;20040;-67
2023/01/21 04:21:47;;;;;;;77.78;39.95;;;-0.20;99.90;;;;;;5104472;28;20241;-68
2023/01/21 04:24:12;;;;;;;64.85;37.72;;;-0.20;99.90;;;;;;5099248;28;20047;-68
2023/01/21 04:26:38;;;;;;;71.70;38.97;;;-0.30;99.90;;;;;;5103576;28;20044;-69
2023/01/21 04:29:04;;;;;;;65.03;37.05;;;-0.30;99.90;;;;;;5082768;28;20151;-68
2023/01/21 04:31:29;;;;;;;64.63;37.53;;;-0.40;99.90;;;;;;5104211;28;20035;-68
2023/01/21 04:33:55;;;;;;;12.40;6.45;;;-0.40;99.90;;;;;;5100797;28;20039;-68
2023/01/21 04:36:20;;;;;;;62.88;37.47;;;-0.40;99.90;;;;;;5106955;28;20028;-68
2023/01/21 04:38:46;;;;;;;64.55;36.30;;;-0.40;99.90;;;;;;5097465;28;20040;-68
2023/01/21 04:41:12;;;;;;;64.72;37.38;;;-0.50;99.90;;;;;;5107729;28;20047;-68
2023/01/21 04:43:37;;;;;;;61.03;34.60;;;-0.50;99.90;;;;;;5100314;28;20040;-68
2023/01/21 04:46:03;;;;;;;68.03;37.78;;;-0.50;99.90;;;;;;5103615;28;20054;-67
2023/01/21 04:48:29;;;;;;;67.63;38.15;;;-0.60;99.90;;;;;;5107401;28;20679;-68
2023/01/21 04:50:55;;;;;;;56.20;34.20;;;-0.60;99.90;;;;;;5109241;28;20040;-68
2023/01/21 04:53:21;;;;;;;60.28;36.75;;;-0.60;99.90;;;;;;5102634;27;20044;-67
2023/01/21 04:55:50;;;;;;;65.55;37.30;;;-0.70;99.90;;;;;;5108846;28;20690;-68
2023/01/21 04:58:16;;;;;;;9.35;5.30;;;-0.70;99.90;;;;;;5108560;28;20066;-68
2023/01/21 05:00:42;;;;;;;69.85;38.03;;;-0.70;99.90;;;;;;5094130;28;20532;-68
2023/01/21 05:03:08;;;;;;;63.60;36.88;;;-0.70;99.90;;;;;;5106264;28;20822;-68
2023/01/21 05:05:33;;;;;;;68.50;40.03;;;-0.70;99.90;;;;;;5106743;28;20488;-68
2023/01/21 05:07:59;;;;;;;73.22;39.90;;;-0.70;99.90;;;;;;5095549;28;20528;-68
2023/01/21 05:10:25;;;;;;;68.47;37.20;;;-0.70;99.90;;;;;;5107860;28;20504;-67
2023/01/21 05:12:50;;;;;;;67.78;37.65;;;-0.70;99.90;;;;;;5108737;28;20032;-68
2023/01/21 05:15:17;;;;;;;75.65;39.80;;;-0.70;99.90;;;;;;5107489;28;20093;-68
2023/01/21 05:17:42;;;;;;;67.57;37.17;;;-0.60;99.90;;;;;;5101940;28;20122;-67
2023/01/21 05:20:09;;;;;;;65.82;39.60;;;-0.70;99.90;;;;;;5105830;28;20151;-68
2023/01/21 05:22:35;;;;;;;85.38;40.65;;;-0.60;99.90;;;;;;5104439;28;20423;-68
2023/01/21 05:25:00;;;;;;;72.32;40.33;;;-0.60;99.90;;;;;;5093164;28;20036;-68
2023/01/21 05:27:26;;;;;;;71.88;42.72;;;-0.60;99.90;;;;;;5095502;28;20043;-68
2023/01/21 05:29:52;;;;;;;78.45;39.88;;;-0.50;99.90;;;;;;5099090;28;20039;-68
2023/01/21 05:32:18;;;;;;;76.38;41.10;;;-0.50;99.90;;;;;;5089336;28;20048;-68
2023/01/21 05:34:44;;;;;;;77.68;41.22;;;-0.50;99.90;;;;;;5087088;28;20798;-68
2023/01/21 05:37:10;;;;;;;72.10;41.15;;;-0.50;99.90;;;;;;5094800;28;20130;-68
2023/01/21 05:39:36;;;;;;;84.70;44.00;;;-0.40;99.90;;;;;;5101150;28;20096;-68
2023/01/21 05:42:02;;;;;;;74.68;41.67;;;-0.40;99.90;;;;;;5108018;28;20688;-68
2023/01/21 05:44:27;;;;;;;83.32;42.75;;;-0.40;99.90;;;;;;5106851;28;20040;-68
2023/01/21 05:46:53;;;;;;;69.03;38.38;;;-0.40;99.90;;;;;;5108895;28;20047;-68
2023/01/21 05:49:18;;;;;;;78.47;39.83;;;-0.30;99.90;;;;;;5107169;28;20047;-68
2023/01/21 05:51:44;;;;;;;79.07;40.80;;;-0.30;99.90;;;;;;5097370;28;20497;-68
2023/01/21 05:54:10;;;;;;;78.60;42.47;;;-0.30;99.90;;;;;;5104061;28;20031;-68
2023/01/21 05:56:36;;;;;;;73.43;42.00;;;-0.30;99.90;;;;;;5105614;28;20047;-68
2023/01/21 05:59:02;;;;;;;81.18;42.65;;;-0.20;99.90;;;;;;5106927;28;20052;-68
2023/01/21 06:01:27;;;;;;;82.20;42.38;;;-0.20;99.90;;;;;;5096851;28;20055;-68
2023/01/21 06:03:54;;;;;;;79.35;42.83;;;-0.20;99.90;;;;;;5087930;28;20044;-68
2023/01/21 06:06:20;;;;;;;70.47;37.65;;;-0.20;99.90;;;;;;5094687;28;20043;-68
2023/01/21 06:08:46;;;;;;;80.97;42.03;;;-0.20;99.90;;;;;;5079882;28;20039;-68
2023/01/21 06:11:11;;;;;;;82.15;43.30;;;-0.10;99.90;;;;;;5105407;28;20070;-68
2023/01/21 06:13:37;;;;;;;85.80;47.33;;;-0.10;99.90;;;;;;5093391;28;20689;-69
2023/01/21 06:16:03;;;;;;;75.93;41.80;;;-0.10;99.90;;;;;;5092747;28;20156;-68
2023/01/21 06:18:28;;;;;;;78.75;41.55;;;-0.10;99.90;;;;;;5090105;28;20044;-68
2023/01/21 06:20:58;;;;;;;76.78;42.03;;;-0.10;99.90;;;;;;5104279;28;20126;-68
2023/01/21 06:23:23;;;;;;;77.20;41.53;;;0.00;99.90;;;;;;5098021;28;20123;-68
2023/01/21 06:25:49;;;;;;;73.10;40.38;;;0.00;99.90;;;;;;5097142;28;20056;-68
2023/01/21 06:28:15;;;;;;;73.47;42.70;;;0.00;99.90;;;;;;5091378;28;20058;-69
2023/01/21 06:30:40;;;;;;;84.53;40.38;;;0.00;99.90;;;;;;5103527;28;20059;-68
2023/01/21 06:33:06;;;;;;;72.75;39.35;;;0.00;99.90;;;;;;5097208;28;20035;-68
2023/01/21 06:35:32;;;;;;;77.28;43.78;;;0.10;99.90;;;;;;5102744;28;20050;-68
2023/01/21 06:37:58;;;;;;;73.47;41.85;;;0.00;99.90;;;;;;5099409;28;20040;-68
2023/01/21 06:40:24;;;;;;;77.57;41.95;;;0.10;99.90;;;;;;5087128;28;20048;-68
2023/01/21 06:42:50;;;;;;;77.88;43.72;;;0.10;99.90;;;;;;5107067;28;20043;-68
2023/01/21 06:45:17;;;;;;;73.40;41.53;;;0.10;99.90;;;;;;5100882;28;20097;-68
2023/01/21 06:47:44;;;;;;;77.53;38.75;;;0.10;99.90;;;;;;5089643;28;20055;-69
2023/01/21 06:50:11;;;;;;;75.72;40.08;;;0.00;99.90;;;;;;5100031;28;20039;-68
2023/01/21 06:52:38;;;;;;;76.47;40.58;;;0.20;99.90;;;;;;5105510;28;20039;-69
2023/01/21 06:55:04;;;;;;;80.43;43.70;;;0.20;99.90;;;;;;5105977;28;20074;-68
2023/01/21 06:57:30;;;;;;;73.50;42.38;;;0.10;99.90;;;;;;5106865;28;20443;-69
2023/01/21 06:59:56;;;;;;;76.20;40.78;;;0.20;99.90;;;;;;5101269;28;20118;-69
2023/01/21 07:02:21;;;;;;;79.78;42.47;;;0.20;99.90;;;;;;5105098;28;20293;-69
2023/01/21 07:04:49;;;;;;;75.47;40.55;;;0.20;99.90;;;;;;5106121;28;20089;-68
2023/01/21 07:07:15;;;;;;;77.32;40.72;;;0.20;99.90;;;;;;5092197;28;20054;-69
2023/01/21 07:09:41;;;;;;;79.35;41.53;;;0.20;99.90;;;;;;5104338;28;20035;-68
2023/01/21 07:12:06;;;;;;;72.57;40.08;;;0.20;99.90;;;;;;5106533;28;20051;-69
2023/01/21 07:14:32;;;;;;;87.38;41.45;;;0.20;99.90;;;;;;5104714;28;20039;-68
2023/01/21 07:16:58;;;;;;;75.30;40.40;;;0.20;99.90;;;;;;5092431;28;20047;-68
2023/01/21 07:19:23;;;;;;;73.25;39.42;;;0.20;99.90;;;;;;5099452;28;20560;-68
2023/01/21 07:21:49;;;;;;;79.85;41.58;;;0.20;99.90;;;;;;5085325;28;20668;-68
2023/01/21 07:24:15;;;;;;;67.40;38.95;;;0.20;99.90;;;;;;5089646;28;20096;-68
2023/01/21 07:26:42;;;;;;;74.60;41.15;;;0.30;99.90;;;;;;5105943;28;20043;-69
2023/01/21 07:29:08;;;;;;;77.68;40.05;;;0.20;99.90;;;;;;5100142;28;20087;-68
2023/01/21 07:31:34;;;;;;;70.93;38.50;;;0.20;99.90;;;;;;5106155;28;20126;-68
2023/01/21 07:34:00;;;;;;;75.10;39.20;;;0.30;99.90;;;;;;5105812;28;20119;-69
2023/01/21 07:36:26;;;;;;;94.30;42.63;;;0.20;99.90;;;;;;5099188;28;20526;-68
2023/01/21 07:38:53;;;;;;;82.32;42.30;;;0.30;99.90;;;;;;5091191;28;20042;-68
2023/01/21 07:41:18;;;;;;;26.42;11.63;;;0.30;99.90;;;;;;5096455;28;20541;-69
2023/01/21 07:43:46;;;;;;;77.65;39.75;;;0.20;99.90;;;;;;5103144;28;20051;-68
2023/01/21 07:46:17;;;;;;;82.63;41.35;;;0.30;99.90;;;;;;5091672;28;20059;-68
2023/01/21 07:48:43;;;;;;;77.85;38.97;;;0.30;99.90;;;;;;5103505;28;20568;-68
2023/01/21 07:51:09;;;;;;;72.00;38.35;;;0.30;99.90;;;;;;5101638;28;20043;-68
2023/01/21 07:53:35;;;;;;;77.95;42.40;;;0.30;99.90;;;;;;5096312;28;20040;-69
2023/01/21 07:56:05;;;;;;;80.20;41.78;;;0.30;99.90;;;;;;5093569;28;20046;-68
2023/01/21 07:58:31;;;;;;;81.35;42.08;;;0.30;99.90;;;;;;5099978;28;20093;-69
2023/01/21 08:00:58;;;;;;;79.13;42.28;;;0.40;99.90;;;;;;5103304;28;20077;-69
2023/01/21 08:03:24;;;;;;;72.35;39.95;;;0.40;99.90;;;;;;5102443;28;20043;-69
2023/01/21 08:05:53;;;;;;;76.80;43.58;;;0.40;99.90;;;;;;5092952;28;20049;-69
2023/01/21 08:08:20;;;;;;;84.53;43.65;;;0.40;99.90;;;;;;5094677;28;20496;-69
2023/01/21 08:10:53;;;;;;;80.68;43.58;;;0.40;99.90;;;;;;5090354;28;20040;-69
2023/01/21 08:13:19;;;;;;;75.93;42.22;;;0.40;99.90;;;;;;5094590;28;20092;-69
2023/01/21 08:15:52;;;;;;;74.00;40.33;;;0.50;99.90;;;;;;5100497;28;20032;-69
2023/01/21 08:18:20;;;;;;;78.75;42.95;;;0.40;99.90;;;;;;5100009;28;20052;-69
2023/01/21 08:20:47;;;;;;;76.93;40.88;;;0.40;99.90;;;;;;5095280;28;20047;-69
2023/01/21 08:23:13;;;;;;;81.63;43.30;;;0.50;99.90;;;;;;5106863;28;20036;-69
2023/01/21 08:25:38;;;;;;;82.13;44.65;;;0.50;99.90;;;;;;5098613;28;20050;-70
2023/01/21 08:28:04;;;;;;;78.72;43.45;;;0.50;99.90;;;;;;5087712;28;20112;-70
2023/01/21 08:30:30;;;;;;;86.38;46.40;;;0.50;99.90;;;;;;5098188;28;20493;-70
2023/01/21 08:32:56;;;;;;;77.55;42.78;;;0.50;99.90;;;;;;5102330;28;20042;-70
2023/01/21 08:35:22;;;;;;;80.38;43.90;;;0.50;99.90;;;;;;5099771;28;20039;-69
2023/01/21 08:37:48;;;;;;;82.20;42.55;;;0.60;99.90;;;;;;5105445;28;20043;-69
2023/01/21 08:40:14;;;;;;;85.07;43.38;;;0.50;99.90;;;;;;5103542;28;20485;-69
2023/01/21 08:42:40;;;;;;;82.43;45.30;;;0.60;99.90;;;;;;5089941;28;20044;-70
2023/01/21 08:45:06;;;;;;;86.15;43.15;;;0.60;99.90;;;;;;5097735;28;20131;-70
2023/01/21 08:47:32;;;;;;;85.07;43.85;;;0.60;99.90;;;;;;5092932;28;20040;-70
2023/01/21 08:49:58;;;;;;;82.55;44.83;;;0.60;99.90;;;;;;5091469;28;20703;-70
2023/01/21 08:52:23;;;;;;;75.60;41.28;;;0.70;99.90;;;;;;5104251;28;20070;-70
2023/01/21 08:54:49;;;;;;;82.75;44.90;;;0.70;99.90;;;;;;5098762;28;20579;-70
2023/01/21 08:57:15;;;;;;;83.90;44.42;;;0.70;99.90;;;;;;5098862;28;20055;-70
2023/01/21 08:59:44;;;;;;;83.40;43.10;;;0.70;99.90;;;;;;5094301;28;20039;-69
2023/01/21 09:02:10;;;;;;;85.80;43.38;;;0.70;99.90;;;;;;5099859;28;20382;-70
2023/01/21 09:04:36;;;;;;;79.57;44.20;;;0.70;99.90;;;;;;5089842;28;20039;-70
2023/01/21 09:07:02;;;;;;;77.32;43.03;;;0.70;99.90;;;;;;5092111;28;20116;-70
2023/01/21 09:09:27;;;;;;;74.85;41.67;;;0.80;99.90;;;;;;5105845;28;20501;-69
2023/01/21 09:11:53;;;;;;;92.40;43.78;;;0.80;99.90;;;;;;5100762;28;20048;-70
2023/01/21 09:14:19;;;;;;;72.68;41.28;;;0.80;99.90;;;;;;5098768;28;20047;-70
2023/01/21 09:16:48;;;;;;;79.55;41.42;;;0.80;99.90;;;;;;5100361;28;20123;-70
2023/01/21 09:19:13;;;;;;;71.95;39.95;;;0.80;99.90;;;;;;5104246;28;20060;-70
2023/01/21 09:21:39;;;;;;;76.38;44.13;;;0.80;99.90;;;;;;5093185;28;20163;-70
2023/01/21 09:24:05;;;;;;;79.55;42.83;;;0.90;99.90;;;;;;5101891;28;20084;-70
2023/01/21 09:26:31;;;;;;;77.18;41.53;;;0.90;99.90;;;;;;5093576;28;20040;-71
2023/01/21 09:29:00;;;;;;;78.28;43.38;;;0.90;99.90;;;;;;5101640;28;20043;-71
2023/01/21 09:31:27;;;;;;;82.03;45.15;;;1.00;99.90;;;;;;5101306;28;20047;-70
2023/01/21 09:33:58;;;;;;;74.35;40.05;;;1.00;99.90;;;;;;5094317;28;20075;-70
2023/01/21 09:36:26;;;;;;;86.35;46.67;;;1.00;99.90;;;;;;5095350;28;20047;-70
2023/01/21 09:38:53;;;;;;;83.32;48.15;;;1.00;99.90;;;;;;5097238;28;20039;-70
2023/01/21 09:41:22;;;;;;;82.07;50.33;;;1.00;99.90;;;;;;5099757;28;20047;-70
2023/01/21 09:44:09;;;;;;;83.75;47.17;;;1.00;99.90;;;;;;5100828;28;20040;-69
2023/01/21 09:46:43;;;;;;;82.07;45.50;;;1.00;99.90;;;;;;5101132;28;20075;-69
2023/01/21 09:49:28;;;;;;;71.13;43.33;;;1.00;99.90;;;;;;5091739;28;20044;-70
2023/01/21 09:52:22;;;;;;;81.30;45.92;;;1.10;99.90;;;;;;5082702;27;20447;-69
2023/01/21 09:54:49;;;;;;;79.90;44.28;;;1.10;99.90;;;;;;5106327;28;20496;-69
2023/01/21 09:58:05;;;;;;;82.07;46.03;;;1.00;99.90;;;;;;5105880;28;20063;-69
2023/01/21 10:00:51;;;;;;;69.57;41.55;;;1.10;99.90;;;;;;5095799;28;20055;-69
2023/01/21 10:03:23;;;;;;;73.40;44.35;;;1.10;99.90;;;;;;5094063;28;20474;-69
2023/01/21 10:06:11;;;;;;;84.70;45.65;;;1.10;99.90;;;;;;5098295;28;20076;-68
2023/01/21 10:09:11;;;;;;;80.45;45.60;;;1.10;99.90;;;;;;5099641;28;20044;-68
2023/01/21 10:11:47;;;;;;;81.47;47.53;;;1.20;99.90;;;;;;5049639;28;20044;-68
2023/01/21 10:14:34;;;;;;;78.53;46.45;;;1.10;99.90;;;;;;5099693;28;20047;-68
2023/01/21 10:17:23;;;;;;;86.53;48.35;;;1.20;99.90;;;;;;5095252;28;20042;-68
2023/01/21 10:20:09;;;;;;;79.25;46.63;;;1.20;99.90;;;;;;5094942;28;20404;-67
2023/01/21 10:22:36;;;;;;;26.30;11.07;;;1.20;99.90;;;;;;5104232;28;20134;-67
2023/01/21 10:25:12;;;;;;;90.40;51.00;;;1.20;99.90;;;;;;5101534;28;20315;-67
2023/01/21 10:27:41;;;;;;;83.03;51.80;;;1.20;99.90;;;;;;5102186;28;20420;-68
2023/01/21 10:30:33;;;;;;;80.88;48.55;;;1.20;99.90;;;;;;5099972;28;20062;-68
2023/01/21 10:32:59;;;;;;;87.13;52.08;;;1.30;99.90;;;;;;5095330;28;20062;-67
2023/01/21 10:36:01;;;;;;;84.63;52.75;;;1.30;99.90;;;;;;5104142;28;20043;-67
2023/01/21 10:38:59;;;;;;;92.80;52.25;;;1.30;99.90;;;;;;5103717;28;20143;-67
2023/01/21 10:41:35;;;;;;;90.40;54.60;;;1.50;99.90;;;;;;5102681;28;20096;-68
2023/01/21 10:44:23;;;;;;;98.05;53.92;;;1.50;99.90;;;;;;5103283;28;20337;-67
2023/01/21 10:46:49;;;;;;;;;;;1.60;99.90;;;;;;5099321;28;20071;-68
2023/01/21 10:49:43;;;;;;;83.70;52.42;;;1.60;99.90;;;;;;5105971;28;19981;-67
2023/01/21 10:52:13;;;;;;;87.35;53.97;;;1.60;99.90;;;;;;5104479;28;20051;-68
2023/01/21 10:55:03;;;;;;;78.50;49.10;;;1.60;99.90;;;;;;5100258;28;20115;-67
2023/01/21 10:57:37;;;;;;;80.38;48.75;;;1.60;99.90;;;;;;5102099;28;20055;-68
2023/01/21 11:00:14;;;;;;;79.03;50.72;;;1.70;99.90;;;;;;5102595;28;20091;-68
2023/01/21 11:02:40;;;;;;;79.18;51.03;;;1.80;99.90;;;;;;5102773;28;20077;-68
2023/01/21 11:05:10;;;;;;;86.43;51.28;;;1.80;99.90;;;;;;5095682;28;20044;-69
2023/01/21 11:07:41;;;;;;;80.25;49.78;;;1.90;99.90;;;;;;5100159;28;20084;-69
2023/01/21 11:10:07;;;;;;;77.22;49.97;;;2.00;99.90;;;;;;5104905;28;20075;-69
2023/01/21 11:12:34;;;;;;;77.25;48.15;;;2.10;99.90;;;;;;5096197;28;20038;-69
2023/01/21 11:15:12;;;;;;;86.68;50.50;;;2.20;99.90;;;;;;5102038;28;20532;-69
2023/01/21 11:17:42;;;;;;;85.15;50.20;;;2.20;99.90;;;;;;5088264;28;20192;-68
2023/01/21 11:20:39;;;;;;;82.07;51.38;;;2.30;99.90;;;;;;5094584;28;20761;-69
2023/01/21 11:23:23;;;;;;;81.75;53.15;;;2.40;99.90;;;;;;5103721;28;20059;-69
2023/01/21 11:25:48;;;;;;;79.20;51.25;;;2.50;99.90;;;;;;5085991;28;20520;-68
2023/01/21 11:28:25;;;;;;;83.28;49.78;;;2.60;99.90;;;;;;5096335;28;20035;-69
2023/01/21 11:31:06;;;;;;;81.13;51.22;;;2.70;99.90;;;;;;5100093;28;20058;-68
2023/01/21 11:33:33;;;;;;;80.53;50.47;;;2.70;99.90;;;;;;5104277;28;20500;-68
2023/01/21 11:36:15;;;;;;;80.47;49.83;;;2.80;99.90;;;;;;5092743;28;20052;-68
2023/01/21 11:38:41;;;;;;;80.15;50.58;;;2.80;99.90;;;;;;5101463;28;20382;-68
2023/01/21 11:41:10;;;;;;;79.50;50.25;;;2.80;99.90;;;;;;5102454;28;20066;-68
2023/01/21 11:43:36;;;;;;;;;;;2.80;99.90;;;;;;5102852;28;20119;-68
2023/01/21 11:46:25;;;;;;;79.05;48.80;;;2.80;99.90;;;;;;5104589;28;20003;-68
2023/01/21 11:49:15;;;;;;;80.63;50.88;;;2.80;99.90;;;;;;5087310;28;20060;-68
2023/01/21 11:51:43;;;;;;;73.47;46.67;;;2.90;99.90;;;;;;5099775;28;20044;-68
2023/01/21 11:54:23;;;;;;;73.95;47.53;;;2.90;99.90;;;;;;5099722;28;20401;-69
2023/01/21 11:57:01;;;;;;;79.57;47.05;;;2.90;99.90;;;;;;5095395;28;20047;-69
2023/01/21 11:59:38;;;;;;;81.18;49.67;;;2.90;99.90;;;;;;5090498;28;20094;-69
2023/01/21 12:02:22;;;;;;;61.58;40.88;;;2.90;99.90;;;;;;5097867;28;20055;-68
2023/01/21 12:04:55;;;;;;;65.50;44.25;;;3.00;99.90;;;;;;5095013;28;20046;-69
2023/01/21 12:07:28;;;;;;;79.00;47.03;;;2.90;99.90;;;;;;5093851;28;20051;-68
2023/01/21 12:10:00;;;;;;;70.93;45.90;;;2.90;99.90;;;;;;5088331;28;20047;-68
2023/01/21 12:12:39;;;;;;;75.30;46.15;;;3.00;99.90;;;;;;5102469;28;20043;-69
2023/01/21 12:15:21;;;;;;;;;;;3.00;99.90;;;;;;5103177;28;20043;-68
2023/01/21 12:18:04;;;;;;;73.95;46.08;;;3.10;99.90;;;;;;5103668;28;19966;-68
2023/01/21 12:21:08;;;;;;;70.28;44.90;;;3.10;99.90;;;;;;5095712;28;20067;-68
2023/01/21 12:24:13;;;;;;;71.22;44.97;;;3.20;99.90;;;;;;5090359;28;20043;-69
2023/01/21 12:26:45;;;;;;;71.15;44.15;;;3.20;99.90;;;;;;5089595;28;20124;-68
2023/01/21 12:29:29;;;;;;;66.85;41.95;;;3.20;99.90;;;;;;5103707;28;20046;-68
2023/01/21 12:32:18;;;;;;;62.78;38.97;;;3.20;99.90;;;;;;5086900;28;20036;-68
2023/01/21 12:35:02;;;;;;;64.63;41.03;;;3.30;99.90;;;;;;5077958;28;20055;-70
2023/01/21 12:37:37;;;;;;;64.97;38.97;;;3.30;99.90;;;;;;5100422;28;20465;-69
2023/01/21 12:40:15;;;;;;;34.03;16.15;;;3.30;99.90;;;;;;5096056;28;20055;-69
2023/01/21 12:42:46;;;;;;;54.55;36.90;;;3.30;99.90;;;;;;5104741;28;20058;-68
2023/01/21 12:45:19;;;;;;;56.97;34.38;;;3.40;99.90;;;;;;5104537;28;20055;-68
2023/01/21 12:47:49;;;;;;;49.90;34.33;;;3.50;99.90;;;;;;5097426;28;20572;-69
2023/01/21 12:50:25;;;;;;;47.80;31.80;;;3.60;99.90;;;;;;5088923;28;20070;-68
2023/01/21 12:53:15;;;;;;;50.25;34.22;;;3.60;99.90;;;;;;5093738;28;20570;-69